Latest Weather Observations for Tuggeranong

IDN60801

Issued at 11:32 am EDT Sunday 29 March 2015 (issued every 30 minutes, with the page automatically refreshed every 10 minutes)

About weather observations | Map of weather stations | Latest weather observations for NSW | Other Formats
Station Details ID: 070339 Name: TUGGERANONG (ISABELLA PLAINS) AWS Lat: -35.42 Lon: 149.09 Height: 586.7 m
Data from the previous 72 hours. | See also: Recent months at Tuggeranong
Date/Time
EDT
Temp
°C
App
Temp
°C
Dew
Point
Rel
Hum
%
Delta-T
°C
Wind Press
QNH
hPa
Press
MSL
hPa
Rain
since 9 am
mm
Dir
 
Spd
km/h
Gust
km/h
Spd
kts
Gust
kts
29/11:30am 15.9 14.3 8.2 60 4.0 NW 6 9 3 5 1024.2 1022.3 0.0
29/11:00am 14.4 13.1 9.2 71 2.7 WSW 6 9 3 5 1024.4 1022.5 0.0
29/10:30am 12.7 11.1 8.2 74 2.3 NW 6 9 3 5 1024.9 1022.9 0.0
29/10:00am 12.0 10.7 9.2 83 1.4 W 6 9 3 5 1024.8 1022.8 0.0
29/09:30am 10.1 9.8 8.7 91 0.7 CALM 0 0 0 0 1024.9 1022.9 0.0
29/09:00am 8.4 7.8 7.2 92 0.6 CALM 0 0 0 0 1024.6 1022.7 0.0
29/08:30am 7.3 6.5 6.4 94 0.4 CALM 0 0 0 0 1024.3 1022.4 0.0
29/08:00am 6.1 5.2 6.0 99 0.0 CALM 0 0 0 0 1024.0 1022.0 0.0
29/07:30am 4.6 3.3 4.2 97 0.2 CALM 0 0 0 0 1023.7 1021.7 0.0
29/07:00am 4.0 2.6 3.6 97 0.2 CALM 0 0 0 0 1023.3 1021.3 0.0
29/06:30am 4.0 2.5 3.1 94 0.4 CALM 0 0 0 0 1023.1 1021.1 0.0
29/05:30am 4.6 3.3 4.0 96 0.3 CALM 0 0 0 0 1022.7 1020.8 0.0
29/05:00am 4.9 3.6 4.3 96 0.3 CALM 0 0 0 0 1022.7 1020.8 0.0
29/04:30am 5.3 4.0 4.1 92 0.5 CALM 0 0 0 0 1022.6 1020.7 0.0
29/04:00am 6.0 4.8 4.8 92 0.5 CALM 0 0 0 0 1022.6 1020.7 0.0
29/03:30am 6.1 4.9 4.6 90 0.7 CALM 0 0 0 0 1022.9 1020.9 0.0
29/03:00am 7.4 6.4 5.7 89 0.8 CALM 0 0 0 0 1023.2 1021.2 0.0
29/02:30am 7.5 6.5 5.6 88 0.9 CALM 0 0 0 0 1023.5 1021.5 0.0
29/02:00am 8.1 6.1 6.1 87 0.9 E 6 7 3 4 1023.6 1021.6 0.0
29/01:30am 8.6 6.4 6.2 85 1.1 E 7 7 4 4 1023.8 1021.8 0.0
29/01:00am 9.5 7.5 6.9 84 1.3 ENE 7 9 4 5 1023.9 1021.9 0.0
29/12:30am 10.0 8.9 6.7 80 1.6 NNW 2 9 1 5 1023.9 1021.9 0.0
29/12:00am 10.6 9.9 6.9 78 1.8 CALM 0 0 0 0 1024.1 1022.2 0.0
 
Date/Time
EDT
Temp
°C
App
Temp
°C
Dew
Point
Rel
Hum
%
Delta-T
°C
Wind Press
QNH
hPa
Press
MSL
hPa
Rain
since 9 am
mm
Dir
 
Spd
km/h
Gust
km/h
Spd
kts
Gust
kts
28/11:30pm 11.9 10.2 7.4 74 2.2 N 6 7 3 4 1024.0 1022.0 0.0
28/11:00pm 12.0 10.1 6.9 71 2.5 S 6 9 3 5 1024.1 1022.2 0.0
28/10:30pm 13.5 9.8 7.9 69 2.9 ENE 17 26 9 14 1023.9 1021.9 0.0
28/10:00pm 13.9 10.2 7.9 67 3.1 ENE 17 28 9 15 1023.7 1021.7 0.0
28/09:30pm 14.4 11.0 7.7 64 3.4 ENE 15 24 8 13 1023.5 1021.5 0.0
28/09:00pm 15.3 11.3 6.6 56 4.4 ENE 17 26 9 14 1023.3 1021.3 0.0
28/08:30pm 14.0 12.1 2.9 47 5.1 NE 2 6 1 3 1022.5 1020.5 0.0
28/08:00pm 16.0 13.4 3.1 42 6.0 NNW 6 9 3 5 1022.4 1020.4 0.0
28/07:30pm 17.3 14.5 2.1 36 7.1 NNW 6 9 3 5 1021.9 1019.9 0.0
28/07:00pm 18.9 15.9 1.9 32 8.0 NNW 7 9 4 5 1021.6 1019.6 0.0
28/06:30pm 20.2 16.4 1.6 29 8.8 N 11 19 6 10 1021.4 1019.4 0.0
28/05:30pm 21.3 18.2 1.6 27 9.4 NNW 7 17 4 9 1021.2 1019.2 0.0
28/05:00pm 21.4 17.6 1.6 27 9.4 NW 11 17 6 9 1021.4 1019.4 0.0
28/04:30pm 21.7 18.1 0.8 25 9.8 W 9 11 5 6 1021.4 1019.4 0.0
28/04:00pm 21.5 18.6 1.7 27 9.4 WNW 6 13 3 7 1021.6 1019.6 0.0
28/03:30pm 20.8 17.0 1.6 28 9.1 N 11 20 6 11 1021.6 1019.6 0.0
28/03:00pm 21.3 17.7 3.0 30 8.9 NNW 11 15 6 8 1021.8 1019.8 0.0
28/02:30pm 20.1 16.4 2.5 31 8.4 W 11 17 6 9 1022.1 1020.1 0.0
28/02:00pm 19.9 16.8 3.6 34 7.9 NW 9 19 5 10 1022.4 1020.4 0.0
28/01:30pm 19.7 16.9 3.4 34 7.9 SW 7 13 4 7 1023.0 1021.0 0.0
28/01:00pm 18.4 15.2 3.1 36 7.3 S 9 15 5 8 1023.3 1021.3 0.0
28/12:30pm 17.9 15.3 3.4 38 7.0 NW 6 13 3 7 1023.8 1021.8 0.0
28/12:00pm 17.1 14.5 3.4 40 6.5 S 6 11 3 6 1024.2 1022.3 0.0
28/11:30am 16.4 13.3 3.8 43 6.0 S 9 17 5 9 1024.4 1022.5 0.0
28/11:00am 15.5 12.0 3.6 45 5.6 SSW 11 19 6 10 1024.5 1022.6 0.0
28/10:30am 14.7 11.0 4.7 51 4.8 SSW 13 20 7 11 1024.6 1022.7 0.0
28/10:00am 13.6 9.5 4.5 54 4.3 S 15 20 8 11 1024.6 1022.7 0.0
28/09:30am 12.4 10.6 5.3 62 3.4 NNE 4 7 2 4 1024.8 1022.8 0.0
28/09:00am 9.1 6.7 4.5 73 2.1 WNW 6 7 3 4 1024.8 1022.8 0.0
28/08:30am 6.8 4.1 3.8 81 1.3 WNW 7 9 4 5 1024.5 1022.6 0.0
28/08:00am 3.6 1.0 3.0 96 0.3 NW 6 7 3 4 1024.4 1022.5 0.0
28/07:30am 2.1 0.3 1.4 95 0.3 CALM 0 4 0 2 1024.1 1022.2 0.0
28/07:00am 2.4 0.3 1.7 95 0.3 ENE 2 7 1 4 1023.7 1021.7 0.0
28/06:30am 2.0 0.2 1.0 93 0.4 CALM 0 0 0 0 1023.4 1021.4 0.0
28/06:00am 2.4 0.6 1.4 93 0.4 CALM 0 0 0 0 1023.1 1021.1 0.0
28/05:30am 2.9 1.2 2.0 94 0.4 CALM 0 4 0 2 1022.7 1020.8 0.0
28/05:00am 2.9 1.2 1.6 91 0.5 CALM 0 0 0 0 1022.4 1020.4 0.0
28/04:30am 3.3 1.6 2.1 92 0.5 CALM 0 0 0 0 1022.4 1020.4 0.0
28/04:00am 3.3 1.5 1.5 88 0.7 CALM 0 0 0 0 1022.4 1020.4 0.0
28/03:30am 4.4 2.8 2.6 88 0.8 CALM 0 0 0 0 1022.3 1020.3 0.0
28/03:00am 4.7 3.1 2.6 86 0.9 CALM 0 6 0 3 1022.5 1020.5 0.0
28/02:30am 5.1 3.6 3.1 87 0.9 CALM 0 0 0 0 1022.7 1020.8 0.0
28/02:00am 6.0 3.4 3.3 83 1.2 ESE 6 7 3 4 1022.6 1020.7 0.0
28/01:30am 6.1 3.4 2.9 80 1.4 ENE 6 7 3 4 1022.7 1020.8 0.0
28/01:00am 6.9 4.2 3.5 79 1.5 E 7 9 4 5 1022.7 1020.8 0.0
28/12:30am 7.1 4.6 3.7 79 1.5 E 6 7 3 4 1022.7 1020.8 0.0
28/12:00am 7.2 5.0 3.6 78 1.6 ENE 4 9 2 5 1022.7 1020.8 0.0
 
Date/Time
EDT
Temp
°C
App
Temp
°C
Dew
Point
Rel
Hum
%
Delta-T
°C
Wind Press
QNH
hPa
Press
MSL
hPa
Rain
since 9 am
mm
Dir
 
Spd
km/h
Gust
km/h
Spd
kts
Gust
kts
27/11:30pm 8.0 5.5 3.8 75 1.9 ENE 6 7 3 4 1022.5 1020.5 0.0
27/11:00pm 8.0 5.5 3.7 74 1.9 E 6 7 3 4 1022.5 1020.5 0.0
27/10:30pm 8.9 6.8 3.7 70 2.3 E 4 9 2 5 1022.4 1020.4 0.0
27/10:00pm 10.2 8.1 4.1 66 2.8 E 4 7 2 4 1022.1 1020.1 0.0
27/09:30pm 9.8 8.4 3.5 65 2.8 CALM 0 0 0 0 1021.9 1019.9 0.0
27/09:00pm 11.2 9.5 4.2 62 3.2 N 2 9 1 5 1021.5 1019.5 0.0
27/08:30pm 12.5 10.0 3.7 55 4.1 NW 6 7 3 4 1021.2 1019.2 0.0
27/08:00pm 13.8 11.2 3.3 49 4.9 W 6 9 3 5 1020.9 1018.9 0.0
27/07:30pm 14.5 9.8 3.3 47 5.2 W 17 22 9 12 1020.5 1018.5 0.0
27/07:00pm 15.1 10.4 3.0 44 5.6 WSW 17 28 9 15 1020.5 1018.5 0.0
27/06:30pm 15.6 11.2 2.7 42 6.0 SW 15 24 8 13 1020.2 1018.2 0.0
27/06:00pm 16.0 10.9 2.8 41 6.2 SW 19 28 10 15 1019.9 1017.9 0.0
27/05:30pm 16.6 11.4 2.6 39 6.5 SW 19 30 10 16 1019.5 1017.4 0.0
27/05:00pm 17.6 12.9 3.1 38 6.9 W 17 26 9 14 1019.0 1017.0 0.0
27/04:30pm 18.2 12.8 2.5 35 7.4 WNW 20 32 11 17 1018.7 1016.7 0.0
27/04:00pm 18.9 13.2 2.7 34 7.7 W 22 32 12 17 1018.6 1016.6 0.0
27/03:30pm 19.4 14.2 2.7 33 8.0 W 19 32 10 17 1018.8 1016.8 0.0
27/03:00pm 19.2 13.9 1.7 31 8.2 WSW 19 28 10 15 1018.9 1016.9 0.0
27/02:30pm 19.5 13.9 1.5 30 8.4 WSW 20 43 11 23 1018.8 1016.8 0.0
27/02:00pm 19.5 13.4 0.5 28 8.7 W 22 33 12 18 1018.9 1016.9 0.0
27/01:30pm 18.8 13.2 0.9 30 8.2 WSW 20 35 11 19 1019.4 1017.3 0.0
27/01:00pm 19.2 13.7 2.1 32 8.1 WNW 20 32 11 17 1019.7 1017.7 0.0
27/12:30pm 18.0 12.4 1.1 32 7.8 W 20 32 11 17 1020.3 1018.3 0.0
27/12:00pm 17.3 12.8 2.1 36 7.1 W 15 28 8 15 1020.6 1018.6 0.0
27/11:30am 16.8 11.7 2.8 39 6.6 WNW 19 28 10 15 1020.7 1018.7 0.0
27/11:00am 15.7 10.3 2.5 41 6.1 NW 20 32 11 17 1020.7 1018.7 0.0
27/10:30am 14.9 10.4 2.4 43 5.7 NW 15 28 8 15 1020.9 1018.9 0.0
27/10:00am 13.2 8.6 3.8 53 4.4 NNW 17 30 9 16 1021.2 1019.2 0.0
27/09:30am 12.0 7.4 3.8 57 3.8 NNW 17 24 9 13 1021.3 1019.3 0.0
27/09:00am 10.9 6.2 3.2 59 3.5 NNW 17 26 9 14 1021.2 1019.2 0.0
27/08:30am 10.4 7.2 3.0 60 3.3 NNW 9 19 5 10 1021.2 1019.2 0.0
27/08:00am 9.6 6.8 2.9 63 3.0 NW 7 13 4 7 1020.9 1018.9 0.0
27/07:30am 8.5 5.5 2.3 65 2.7 WNW 7 11 4 6 1020.7 1018.7 0.0
27/07:00am 8.7 4.6 2.1 63 2.8 NNW 13 20 7 11 1020.5 1018.5 0.0
27/06:30am 8.7 4.5 1.6 61 3.0 NNW 13 19 7 10 1020.2 1018.2 0.0
27/06:00am 9.0 4.3 1.2 58 3.3 N 15 20 8 11 1019.8 1017.8 0.0
27/05:30am 9.1 4.8 1.0 57 3.4 N 13 19 7 10 1019.7 1017.7 0.0
27/05:00am 8.8 5.2 0.5 56 3.4 N 9 11 5 6 1019.7 1017.7 0.0
27/04:30am 9.4 5.0 0.6 54 3.7 N 13 19 7 10 1019.8 1017.8 0.0
27/04:00am 9.4 5.4 0.3 53 3.8 N 11 19 6 10 1020.0 1018.0 0.0
27/03:30am 6.3 4.4 0.6 67 2.3 CALM 0 6 0 3 1020.3 1018.3 0.0
27/03:00am 7.1 4.1 0.8 64 2.6 NNE 6 7 3 4 1020.4 1018.4 0.0
27/02:30am 8.3 5.0 0.3 57 3.3 NNW 7 9 4 5 1020.5 1018.5 0.0
27/02:00am 8.4 5.1 0.1 56 3.4 WNW 7 11 4 6 1020.5 1018.5 0.0
27/01:30am 7.7 5.7 0.2 59 3.1 CALM 0 6 0 3 1020.8 1018.8 0.0
27/01:00am 8.7 5.8 -0.9 51 3.9 WSW 4 7 2 4 1021.1 1019.0 0.0
27/12:30am 9.6 6.7 -1.1 47 4.3 WNW 4 7 2 4 1021.1 1019.0 0.0
27/12:00am 10.6 6.8 -1.1 44 4.8 W 9 17 5 9 1021.3 1019.3 0.0
 
Date/Time
EDT
Temp
°C
App
Temp
°C
Dew
Point
Rel
Hum
%
Delta-T
°C
Wind Press
QNH
hPa
Press
MSL
hPa
Rain
since 9 am
mm
Dir
 
Spd
km/h
Gust
km/h
Spd
kts
Gust
kts
26/11:30pm 11.0 6.4 -1.1 43 5.0 W 13 19 7 10 1021.2 1019.2 0.0
26/11:00pm 11.2 7.0 -1.2 42 5.1 W 11 17 6 9 1021.3 1019.3 0.0
26/10:30pm 11.3 7.0 -1.5 41 5.2 WNW 11 20 6 11 1021.3 1019.3 0.0
26/10:00pm 11.8 6.8 -1.3 40 5.4 WNW 15 22 8 12 1021.2 1019.2 0.0
26/09:30pm 12.0 7.3 -1.5 39 5.5 WNW 13 17 7 9 1021.3 1019.3 0.0
26/09:00pm 12.6 7.5 -1.7 37 5.9 WNW 15 24 8 13 1020.9 1018.9 0.0
26/08:30pm 12.5 7.4 -1.8 37 5.9 WNW 15 24 8 13 1020.7 1018.7 0.0
26/08:00pm 12.4 8.2 -1.1 39 5.6 W 11 17 6 9 1020.2 1018.2 0.0
26/07:30pm 13.3 8.7 -1.4 36 6.1 WNW 13 22 7 12 1019.8 1017.8 0.0
26/07:00pm 14.2 9.1 -1.8 33 6.7 W 15 26 8 14 1019.4 1017.3 0.0
26/06:30pm 15.4 9.3 -2.5 29 7.4 WNW 20 30 11 16 1018.8 1016.8 0.0
26/06:00pm 16.1 9.7 -1.9 29 7.6 WNW 22 30 12 16 1018.5 1016.5 0.0
26/05:30pm 16.7 10.8 -0.9 30 7.7 WNW 20 33 11 18 1018.2 1016.2 0.0
26/05:00pm 17.0 10.8 -0.2 31 7.6 WNW 22 33 12 18 1018.0 1015.9 0.0
26/04:30pm 17.3 9.9 -0.4 30 7.8 WNW 28 43 15 23 1017.9 1015.8 0.0
26/04:00pm 18.0 12.1 1.9 34 7.5 WNW 22 32 12 17 1017.6 1015.5 0.0
26/03:36pm 18.0 11.1 2.7 36 7.2 WNW 28 48 15 26 1017.5 1015.4 0.0
26/03:30pm 17.9 11.0 2.6 36 7.2 WNW 28 44 15 24 1017.5 1015.4 0.0
26/03:00pm 18.3 11.9 3.4 37 7.2 WNW 26 44 14 24 1017.5 1015.4 0.0
26/02:34pm 18.8 11.5 2.6 34 7.7 NW 30 48 16 26 1017.2 1015.2 0.0
26/02:30pm 18.9 11.7 3.1 35 7.6 WNW 30 46 16 25 1017.2 1015.2 0.0
26/02:11pm 19.3 12.5 3.1 34 7.8 WNW 28 48 15 26 1017.2 1015.2 0.0
26/02:00pm 18.9 12.1 3.1 35 7.6 WNW 28 41 15 22 1017.5 1015.4 0.0
26/01:31pm 18.6 11.7 2.4 34 7.7 WNW 28 48 15 26 1017.5 1015.4 0.0
26/01:30pm 18.8 12.4 3.0 35 7.6 WNW 26 41 14 22 1017.6 1015.5 0.0
26/01:00pm 18.7 11.9 3.3 36 7.4 W 28 43 15 23 1017.8 1015.7 0.0
26/12:30pm 18.6 11.8 3.3 36 7.4 W 28 46 15 25 1018.1 1016.1 0.0
26/12:00pm 17.4 11.3 3.0 38 6.8 W 24 44 13 24 1018.4 1016.4 0.0

Other Formats:

Comma delimited format used in spreadsheet applications
http://www.bom.gov.au/fwo/IDN60801/IDN60801.94925.axf

JavaScript Object Notation format (JSON) in row-major order
http://www.bom.gov.au/fwo/IDN60801/IDN60801.94925.json